createdAt,value
2018-03-31T00:00:29.031Z,95.40
2018-03-31T00:02:56.774Z,95.12
2018-03-31T00:05:24.348Z,94.85
2018-03-31T00:07:52.656Z,94.38
2018-03-31T00:10:23.660Z,93.90
2018-03-31T00:12:51.822Z,93.20
2018-03-31T00:15:19.893Z,93.14
2018-03-31T00:17:47.503Z,93.30
2018-03-31T00:20:15.012Z,93.37
2018-03-31T00:22:43.383Z,93.72
2018-03-31T00:25:11.713Z,93.11
2018-03-31T00:27:39.484Z,92.67
2018-03-31T00:30:07.288Z,92.22
2018-03-31T00:32:38.136Z,91.85
2018-03-31T00:35:05.789Z,92.09
2018-03-31T00:37:33.344Z,92.48
2018-03-31T00:40:00.855Z,93.33
2018-03-31T00:42:28.622Z,94.63
2018-03-31T00:44:56.168Z,94.94
2018-03-31T00:47:24.345Z,95.33
2018-03-31T00:49:51.928Z,95.14
2018-03-31T00:52:20.248Z,94.97
2018-03-31T00:54:47.792Z,94.71
2018-03-31T00:57:16.003Z,93.81
2018-03-31T00:59:43.876Z,93.66
2018-03-31T01:02:11.539Z,93.31
2018-03-31T01:04:39.097Z,92.94
2018-03-31T01:07:06.701Z,91.80
2018-03-31T01:09:34.222Z,91.11
2018-03-31T01:12:02.247Z,91.20
2018-03-31T01:14:29.776Z,91.35
2018-03-31T01:16:57.929Z,91.28
2018-03-31T01:19:25.485Z,91.22
2018-03-31T01:21:53.014Z,90.42
2018-03-31T01:24:20.534Z,90.34
2018-03-31T01:26:49.569Z,90.57
2018-03-31T01:29:17.080Z,90.57
2018-03-31T01:31:44.615Z,90.75
2018-03-31T01:34:12.183Z,90.47
2018-03-31T01:36:39.851Z,89.93
2018-03-31T01:39:07.732Z,89.60
2018-03-31T01:41:35.593Z,90.00
2018-03-31T01:44:03.109Z,89.70
2018-03-31T01:46:31.444Z,90.02
2018-03-31T01:48:59.017Z,89.66
2018-03-31T01:51:26.552Z,89.47
2018-03-31T01:53:54.116Z,89.53
2018-03-31T01:56:22.216Z,89.51
2018-03-31T01:58:51.326Z,89.77
2018-03-31T02:01:19.699Z,89.26
2018-03-31T02:03:47.224Z,89.48
2018-03-31T02:06:14.748Z,89.75
2018-03-31T02:08:42.413Z,89.86
2018-03-31T02:11:10.732Z,90.19
2018-03-31T02:13:38.259Z,90.22
2018-03-31T02:16:06.080Z,90.46
2018-03-31T02:18:33.607Z,90.28
2018-03-31T02:21:01.142Z,90.32
2018-03-31T02:23:28.712Z,90.96
2018-03-31T02:25:56.484Z,91.28
2018-03-31T02:28:24.876Z,91.54
2018-03-31T02:30:52.418Z,91.34
2018-03-31T02:33:20.097Z,91.09
2018-03-31T02:35:47.669Z,91.47
2018-03-31T02:38:15.208Z,91.14
2018-03-31T02:40:42.812Z,91.18
2018-03-31T02:43:11.481Z,90.51
2018-03-31T02:45:39.540Z,90.64
2018-03-31T02:48:07.602Z,90.60
2018-03-31T02:50:36.100Z,90.75
2018-03-31T02:53:04.535Z,90.55
2018-03-31T02:55:32.072Z,90.43
2018-03-31T02:57:59.587Z,90.34
2018-03-31T03:00:28.508Z,90.89
2018-03-31T03:02:57.199Z,90.57
2018-03-31T03:05:24.941Z,90.70
2018-03-31T03:07:54.011Z,90.73
2018-03-31T03:10:23.151Z,90.76
2018-03-31T03:12:50.695Z,91.00
2018-03-31T03:15:18.218Z,90.28
2018-03-31T03:17:45.921Z,90.41
2018-03-31T03:20:13.771Z,90.83
2018-03-31T03:22:41.284Z,91.04
2018-03-31T03:25:08.883Z,90.83
2018-03-31T03:27:36.444Z,90.86
2018-03-31T03:30:04.545Z,91.00
2018-03-31T03:32:32.704Z,90.97
2018-03-31T03:35:00.281Z,90.56
2018-03-31T03:37:27.844Z,90.54
2018-03-31T03:39:55.920Z,90.65
2018-03-31T03:42:23.443Z,90.54
2018-03-31T03:44:51.547Z,90.58
2018-03-31T03:47:19.101Z,90.06
2018-03-31T03:49:46.616Z,90.14
2018-03-31T03:52:14.826Z,90.49
2018-03-31T03:54:43.275Z,90.89
2018-03-31T03:57:10.787Z,90.67
2018-03-31T03:59:39.064Z,91.35
2018-03-31T04:02:07.276Z,91.99
2018-03-31T04:04:35.353Z,92.20
2018-03-31T04:07:04.343Z,92.43
2018-03-31T04:09:32.485Z,92.47
2018-03-31T04:12:00.033Z,92.38
2018-03-31T04:14:27.538Z,92.23
2018-03-31T04:16:55.115Z,92.33
2018-03-31T04:19:22.835Z,91.92
2018-03-31T04:21:51.159Z,91.88
2018-03-31T04:24:18.688Z,91.67
2018-03-31T04:26:46.435Z,91.80
2018-03-31T04:29:14.768Z,92.00
2018-03-31T04:31:42.284Z,91.91
2018-03-31T04:34:09.808Z,92.03
2018-03-31T04:36:38.902Z,91.86
2018-03-31T04:39:06.576Z,91.76
2018-03-31T04:41:34.735Z,91.72
2018-03-31T04:44:02.850Z,91.89
2018-03-31T04:46:30.529Z,91.98
2018-03-31T04:48:58.041Z,91.62
2018-03-31T04:51:26.089Z,91.72
2018-03-31T04:53:53.607Z,91.78
2018-03-31T04:56:21.170Z,91.81
2018-03-31T04:58:48.741Z,91.96
2018-03-31T05:01:17.075Z,92.18
2018-03-31T05:03:44.597Z,92.03
2018-03-31T05:06:12.134Z,91.73
2018-03-31T05:08:39.808Z,91.85
2018-03-31T05:11:07.344Z,91.65
2018-03-31T05:13:36.423Z,91.54
2018-03-31T05:16:04.764Z,91.48
2018-03-31T05:18:33.724Z,91.56
2018-03-31T05:21:01.920Z,91.26
2018-03-31T05:23:29.499Z,91.12
2018-03-31T05:25:57.070Z,91.44
2018-03-31T05:28:25.392Z,91.18
2018-03-31T05:30:53.640Z,90.93
2018-03-31T05:33:22.700Z,90.78
2018-03-31T05:35:50.999Z,90.51
2018-03-31T05:38:19.217Z,90.17
2018-03-31T05:40:46.848Z,90.07
2018-03-31T05:43:14.584Z,89.83
2018-03-31T05:45:42.548Z,90.08
2018-03-31T05:48:10.112Z,89.91
2018-03-31T05:50:37.634Z,89.62
2018-03-31T05:53:06.464Z,89.86
2018-03-31T05:55:34.740Z,89.27
2018-03-31T05:58:02.302Z,89.44
2018-03-31T06:00:30.440Z,89.65
2018-03-31T06:02:58.299Z,88.83
2018-03-31T06:05:26.079Z,88.64
2018-03-31T06:07:53.652Z,88.65
2018-03-31T06:10:21.235Z,88.03
2018-03-31T06:12:49.004Z,87.57
2018-03-31T06:15:17.284Z,87.56
2018-03-31T06:17:45.604Z,87.95
2018-03-31T06:20:13.163Z,86.94
2018-03-31T06:22:40.736Z,86.69
2018-03-31T06:25:08.407Z,86.06
2018-03-31T06:27:35.934Z,86.25
2018-03-31T06:30:03.455Z,85.58
2018-03-31T06:32:31.004Z,85.14
2018-03-31T06:34:58.519Z,84.13
2018-03-31T06:37:26.480Z,84.37
2018-03-31T06:39:54.761Z,84.18
2018-03-31T06:42:22.286Z,83.32
2018-03-31T06:44:50.373Z,84.22
2018-03-31T06:47:17.903Z,84.35
2018-03-31T06:49:46.135Z,84.07
2018-03-31T06:52:13.865Z,82.75
2018-03-31T06:54:41.430Z,81.99
2018-03-31T06:57:08.948Z,82.27
2018-03-31T06:59:36.464Z,80.89
2018-03-31T07:02:04.063Z,78.16
2018-03-31T07:04:31.575Z,75.48
2018-03-31T07:06:59.098Z,74.57
2018-03-31T07:09:26.679Z,73.89
2018-03-31T07:11:54.451Z,73.51
2018-03-31T07:14:23.306Z,70.62
2018-03-31T07:16:51.003Z,71.39
2018-03-31T07:19:19.683Z,72.09
2018-03-31T07:21:47.189Z,71.95
2018-03-31T07:24:14.803Z,69.16
2018-03-31T07:26:43.065Z,67.38
2018-03-31T07:29:10.597Z,66.85
2018-03-31T07:31:38.179Z,66.97
2018-03-31T07:34:06.612Z,68.02
2018-03-31T07:36:34.180Z,68.12
2018-03-31T07:39:01.960Z,67.23
2018-03-31T07:41:29.545Z,69.45
2018-03-31T07:43:57.828Z,68.40
2018-03-31T07:46:26.000Z,69.51
2018-03-31T07:48:53.536Z,68.95
2018-03-31T07:51:21.087Z,69.90
2018-03-31T07:53:48.631Z,68.21
2018-03-31T07:56:17.384Z,71.83
2018-03-31T07:58:44.953Z,74.21
2018-03-31T08:01:12.468Z,70.38
2018-03-31T08:03:40.042Z,71.03
2018-03-31T08:06:07.596Z,68.30
2018-03-31T08:08:35.912Z,66.89
2018-03-31T08:11:03.841Z,63.94
2018-03-31T08:13:31.412Z,66.80
2018-03-31T08:15:59.468Z,65.77
2018-03-31T08:18:26.995Z,65.09
2018-03-31T08:20:54.533Z,62.47
2018-03-31T08:23:23.576Z,66.55
2018-03-31T08:25:51.200Z,66.00
2018-03-31T08:28:19.160Z,61.71
2018-03-31T08:30:46.728Z,57.69
2018-03-31T08:33:14.323Z,56.32
2018-03-31T08:35:41.841Z,55.23
2018-03-31T08:38:09.372Z,56.08
2018-03-31T08:40:36.920Z,63.87
2018-03-31T08:43:05.200Z,66.12
2018-03-31T08:45:34.705Z,67.03
2018-03-31T08:48:02.296Z,66.39
2018-03-31T08:50:30.404Z,59.84
2018-03-31T08:52:58.268Z,61.41
2018-03-31T08:55:25.988Z,60.20
2018-03-31T08:57:57.816Z,63.83
2018-03-31T09:00:25.483Z,60.59
2018-03-31T09:02:53.064Z,56.21
2018-03-31T09:05:22.946Z,54.09
2018-03-31T09:07:50.459Z,56.44
2018-03-31T09:10:18.647Z,55.41
2018-03-31T09:12:46.163Z,60.88
2018-03-31T09:15:14.517Z,60.57
2018-03-31T09:17:42.036Z,58.14
2018-03-31T09:20:09.553Z,57.24
2018-03-31T09:22:37.827Z,56.64
2018-03-31T09:25:05.620Z,52.59
2018-03-31T09:27:35.851Z,53.47
2018-03-31T09:30:03.368Z,54.31
2018-03-31T09:32:32.327Z,54.83
2018-03-31T09:34:59.913Z,58.06
2018-03-31T09:37:27.436Z,57.41
2018-03-31T09:40:01.238Z,54.93
2018-03-31T09:42:28.924Z,56.87
2018-03-31T09:44:57.119Z,55.63
2018-03-31T09:47:26.076Z,55.51
2018-03-31T09:49:54.154Z,55.26
2018-03-31T09:52:21.670Z,52.79
2018-03-31T09:54:49.228Z,48.94
2018-03-31T09:57:16.753Z,48.37
2018-03-31T09:59:44.352Z,44.69
2018-03-31T10:02:12.248Z,44.41
2018-03-31T10:04:39.772Z,45.22
2018-03-31T10:07:08.165Z,41.04
2018-03-31T10:09:35.783Z,40.08
2018-03-31T10:12:03.300Z,38.76
2018-03-31T10:14:30.840Z,39.27
2018-03-31T10:16:58.437Z,36.50
2018-03-31T10:19:26.166Z,36.49
2018-03-31T10:21:53.888Z,36.72
2018-03-31T10:24:22.964Z,38.32
2018-03-31T10:26:50.533Z,38.97
2018-03-31T10:29:18.146Z,41.06
2018-03-31T10:31:46.030Z,37.31
2018-03-31T10:34:13.547Z,33.89
2018-03-31T10:36:41.103Z,34.63
2018-03-31T10:39:08.640Z,39.62
2018-03-31T10:41:36.194Z,40.73
2018-03-31T10:44:04.696Z,44.32
2018-03-31T10:46:32.248Z,47.72
2018-03-31T10:48:59.770Z,48.00
2018-03-31T10:51:27.340Z,47.10
2018-03-31T10:53:54.872Z,46.63
2018-03-31T10:56:22.451Z,43.71
2018-03-31T10:58:49.969Z,41.25
2018-03-31T11:01:18.481Z,38.60
2018-03-31T11:03:46.050Z,33.84
2018-03-31T11:06:13.604Z,31.63
2018-03-31T11:08:41.148Z,31.74
2018-03-31T11:11:08.670Z,32.12
2018-03-31T11:13:36.940Z,35.60
2018-03-31T11:16:04.468Z,38.24
2018-03-31T11:18:32.025Z,33.76
2018-03-31T11:20:59.580Z,31.03
2018-03-31T11:23:27.099Z,31.37
2018-03-31T11:25:54.620Z,32.90
2018-03-31T11:28:22.608Z,36.70
2018-03-31T11:30:50.152Z,40.46
2018-03-31T11:33:17.924Z,40.31
2018-03-31T11:35:45.511Z,40.91
2018-03-31T11:38:13.807Z,40.08
2018-03-31T11:40:41.345Z,38.90
2018-03-31T11:43:08.944Z,35.24
2018-03-31T11:45:37.277Z,31.44
2018-03-31T11:48:04.844Z,32.06
2018-03-31T11:50:33.180Z,33.06
2018-03-31T11:53:00.697Z,30.36
2018-03-31T11:55:28.225Z,29.53
2018-03-31T11:57:55.807Z,28.54
2018-03-31T12:00:23.376Z,31.57
2018-03-31T12:02:51.407Z,34.20
2018-03-31T12:05:19.263Z,31.82
2018-03-31T12:07:46.828Z,29.84
2018-03-31T12:10:15.010Z,33.05
2018-03-31T12:12:44.080Z,32.79
2018-03-31T12:15:11.663Z,30.44
2018-03-31T12:17:39.184Z,29.41
2018-03-31T12:20:07.670Z,32.67
2018-03-31T12:22:35.669Z,37.00
2018-03-31T12:25:03.314Z,36.01
2018-03-31T12:27:30.837Z,31.03
2018-03-31T12:29:58.347Z,26.65
2018-03-31T12:32:27.836Z,28.35
2018-03-31T12:34:55.352Z,26.83
2018-03-31T12:37:22.940Z,26.67
2018-03-31T12:39:50.584Z,28.11
2018-03-31T12:42:18.399Z,29.47
2018-03-31T12:44:45.956Z,27.75
2018-03-31T12:47:13.661Z,30.41
2018-03-31T12:49:43.277Z,34.75
2018-03-31T12:52:10.402Z,35.90
2018-03-31T12:54:37.921Z,36.94
2018-03-31T12:57:06.546Z,37.88
2018-03-31T12:59:34.072Z,37.50
2018-03-31T13:02:01.644Z,36.51
2018-03-31T13:04:29.173Z,37.12
2018-03-31T13:06:56.778Z,35.89
2018-03-31T13:09:26.199Z,37.02
2018-03-31T13:11:54.332Z,38.69
2018-03-31T13:14:23.357Z,38.88
2018-03-31T13:16:50.885Z,39.83
2018-03-31T13:19:19.761Z,39.75
2018-03-31T13:21:47.456Z,33.68
2018-03-31T13:24:21.193Z,33.88
2018-03-31T13:26:48.860Z,33.06
2018-03-31T13:29:16.435Z,36.01
2018-03-31T13:31:45.085Z,33.98
2018-03-31T13:34:13.471Z,31.65
2018-03-31T13:36:41.016Z,26.79
2018-03-31T13:39:08.545Z,26.31
2018-03-31T13:41:36.628Z,31.42
2018-03-31T13:44:04.179Z,37.53
2018-03-31T13:46:31.785Z,36.42
2018-03-31T13:48:59.996Z,28.85
2018-03-31T13:51:28.147Z,24.16
2018-03-31T13:53:55.885Z,27.12
2018-03-31T13:56:23.636Z,25.68
2018-03-31T13:58:51.562Z,24.60
2018-03-31T14:01:20.432Z,28.53
2018-03-31T14:03:48.724Z,33.02
2018-03-31T14:06:16.336Z,32.66
2018-03-31T14:08:43.896Z,29.61
2018-03-31T14:11:11.408Z,26.32
2018-03-31T14:13:39.437Z,26.15
2018-03-31T14:16:07.165Z,29.22
2018-03-31T14:18:35.416Z,25.06
2018-03-31T14:21:02.928Z,27.15
2018-03-31T14:23:31.320Z,31.12
2018-03-31T14:25:59.828Z,34.17
2018-03-31T14:28:27.526Z,35.66
2018-03-31T14:30:56.571Z,37.43
2018-03-31T14:33:24.875Z,38.13
2018-03-31T14:35:52.400Z,38.65
2018-03-31T14:38:19.993Z,39.00
2018-03-31T14:40:53.675Z,38.68
2018-03-31T14:43:21.283Z,39.45
2018-03-31T14:45:48.808Z,39.71
2018-03-31T14:48:17.688Z,39.65
2018-03-31T14:50:45.237Z,36.78
2018-03-31T14:53:12.816Z,37.68
2018-03-31T14:55:40.375Z,36.20
2018-03-31T14:58:08.125Z,34.09
2018-03-31T15:00:35.841Z,33.73
2018-03-31T15:03:03.454Z,32.15
2018-03-31T15:05:31.032Z,32.40
2018-03-31T15:07:58.544Z,33.39
2018-03-31T15:10:26.672Z,33.74
2018-03-31T15:12:54.938Z,33.04
2018-03-31T15:15:22.460Z,32.22
2018-03-31T15:17:51.840Z,33.78
2018-03-31T15:20:20.912Z,32.11
2018-03-31T15:22:48.428Z,32.60
2018-03-31T15:25:15.997Z,32.53
2018-03-31T15:27:43.548Z,32.20
2018-03-31T15:30:11.507Z,32.09
2018-03-31T15:32:40.996Z,30.63
2018-03-31T15:35:08.772Z,30.62
2018-03-31T15:37:36.747Z,32.06
2018-03-31T15:40:05.004Z,31.82
2018-03-31T15:42:34.044Z,30.86
2018-03-31T15:45:01.588Z,30.39
2018-03-31T15:47:29.868Z,30.91
2018-03-31T15:49:58.049Z,31.11
2018-03-31T15:52:25.847Z,31.21
2018-03-31T15:54:55.323Z,31.04
2018-03-31T15:57:23.039Z,32.42
2018-03-31T15:59:50.821Z,34.24
2018-03-31T16:02:19.440Z,34.84
2018-03-31T16:04:46.972Z,36.11
2018-03-31T16:07:15.328Z,37.42
2018-03-31T16:09:43.620Z,36.95
2018-03-31T16:12:14.260Z,38.06
2018-03-31T16:14:43.363Z,38.05
2018-03-31T16:17:10.936Z,38.02
2018-03-31T16:19:39.173Z,38.75
2018-03-31T16:22:06.753Z,39.35
2018-03-31T16:24:35.602Z,39.83
2018-03-31T16:27:03.209Z,39.69
2018-03-31T16:29:30.722Z,39.35
2018-03-31T16:31:58.923Z,39.29
2018-03-31T16:34:26.867Z,38.50
2018-03-31T16:36:54.532Z,38.61
2018-03-31T16:39:22.149Z,38.23
2018-03-31T16:41:49.730Z,39.02
2018-03-31T16:44:17.252Z,39.62
2018-03-31T16:46:45.432Z,39.90
2018-03-31T16:49:14.139Z,40.45
2018-03-31T16:51:41.739Z,39.90
2018-03-31T16:54:09.317Z,40.65
2018-03-31T16:56:36.907Z,39.96
2018-03-31T16:59:05.920Z,41.02
2018-03-31T17:01:33.617Z,40.95
2018-03-31T17:04:01.272Z,41.03
2018-03-31T17:06:28.775Z,41.68
2018-03-31T17:08:56.332Z,41.07
2018-03-31T17:11:24.381Z,41.28
2018-03-31T17:13:51.939Z,42.18
2018-03-31T17:16:19.943Z,42.72
2018-03-31T17:18:47.625Z,43.52
2018-03-31T17:21:15.289Z,43.82
2018-03-31T17:23:42.873Z,43.45
2018-03-31T17:26:10.755Z,44.24
2018-03-31T17:28:38.312Z,45.04
2018-03-31T17:31:05.988Z,44.28
2018-03-31T17:33:34.816Z,44.28
2018-03-31T17:36:02.888Z,45.07
2018-03-31T17:38:30.562Z,45.76
2018-03-31T17:40:58.088Z,46.37
2018-03-31T17:43:25.752Z,46.59
2018-03-31T17:45:54.548Z,45.70
2018-03-31T17:48:22.164Z,45.71
2018-03-31T17:50:49.685Z,46.84
2018-03-31T17:53:17.716Z,47.66
2018-03-31T17:55:46.216Z,47.70
2018-03-31T17:58:13.732Z,47.05
2018-03-31T18:00:41.579Z,48.03
2018-03-31T18:03:09.155Z,48.38
2018-03-31T18:05:37.762Z,49.22
2018-03-31T18:08:05.276Z,48.55
2018-03-31T18:10:33.179Z,49.40
2018-03-31T18:13:00.836Z,49.92
2018-03-31T18:15:28.367Z,50.24
2018-03-31T18:17:57.049Z,50.63
2018-03-31T18:20:24.634Z,49.42
2018-03-31T18:22:52.169Z,50.52
2018-03-31T18:25:19.675Z,49.85
2018-03-31T18:27:47.216Z,49.80
2018-03-31T18:30:15.292Z,49.57
2018-03-31T18:32:42.801Z,49.88
2018-03-31T18:35:10.339Z,50.20
2018-03-31T18:37:44.884Z,52.40
2018-03-31T18:40:12.454Z,49.61
2018-03-31T18:42:40.775Z,48.74
2018-03-31T18:45:08.812Z,49.48
2018-03-31T18:47:36.345Z,49.14
2018-03-31T18:50:07.316Z,48.00
2018-03-31T18:52:34.915Z,48.84
2018-03-31T18:55:02.748Z,49.24
2018-03-31T18:57:30.464Z,50.28
2018-03-31T18:59:58.302Z,49.33
2018-03-31T19:02:25.891Z,50.00
2018-03-31T19:04:54.483Z,50.55
2018-03-31T19:07:22.400Z,50.34
2018-03-31T19:09:49.934Z,50.03
2018-03-31T19:12:17.940Z,50.47
2018-03-31T19:14:45.775Z,51.23
2018-03-31T19:17:15.047Z,51.44
2018-03-31T19:19:42.694Z,52.11
2018-03-31T19:22:10.290Z,52.88
2018-03-31T19:24:45.331Z,57.41
2018-03-31T19:27:12.856Z,53.50
2018-03-31T19:29:40.487Z,53.77
2018-03-31T19:32:08.357Z,53.03
2018-03-31T19:34:35.887Z,54.33
2018-03-31T19:37:03.412Z,54.03
2018-03-31T19:39:36.592Z,54.38
2018-03-31T19:42:04.632Z,54.34
2018-03-31T19:44:32.527Z,54.22
2018-03-31T19:47:00.280Z,54.10
2018-03-31T19:49:27.804Z,54.58
2018-03-31T19:51:55.365Z,54.31
2018-03-31T19:54:23.256Z,55.13
2018-03-31T19:56:50.779Z,56.49
2018-03-31T19:59:18.320Z,56.28
2018-03-31T20:01:45.893Z,57.55
2018-03-31T20:04:13.755Z,58.50
2018-03-31T20:06:41.279Z,58.22
2018-03-31T20:09:09.513Z,58.54
2018-03-31T20:11:37.739Z,59.35
2018-03-31T20:14:05.342Z,59.26
2018-03-31T20:16:33.647Z,59.67
2018-03-31T20:19:01.180Z,60.09
2018-03-31T20:21:28.899Z,60.10
2018-03-31T20:23:57.224Z,59.88
2018-03-31T20:26:25.019Z,59.60
2018-03-31T20:28:52.555Z,60.09
2018-03-31T20:31:20.872Z,60.53
2018-03-31T20:33:49.004Z,61.25
2018-03-31T20:36:16.539Z,61.41
2018-03-31T20:38:44.907Z,61.90
2018-03-31T20:41:12.436Z,61.40
2018-03-31T20:43:40.599Z,61.06
2018-03-31T20:46:08.860Z,60.39
2018-03-31T20:48:36.979Z,60.35
2018-03-31T20:51:04.524Z,60.99
2018-03-31T20:53:32.924Z,60.72
2018-03-31T20:56:01.208Z,60.45
2018-03-31T20:58:29.060Z,60.84
2018-03-31T21:01:01.000Z,60.17
2018-03-31T21:03:30.463Z,60.26
2018-03-31T21:05:58.356Z,60.09
2018-03-31T21:08:25.973Z,60.26
2018-03-31T21:10:53.956Z,60.42
2018-03-31T21:13:21.659Z,60.32
2018-03-31T21:15:49.224Z,60.50
2018-03-31T21:18:16.744Z,60.39
2018-03-31T21:20:44.991Z,60.98
2018-03-31T21:23:12.527Z,61.30
2018-03-31T21:25:40.799Z,61.92
2018-03-31T21:28:09.143Z,62.34
2018-03-31T21:30:36.952Z,62.78
2018-03-31T21:33:05.144Z,63.05
2018-03-31T21:35:32.707Z,62.69
2018-03-31T21:38:00.868Z,62.39
2018-03-31T21:40:28.444Z,62.21
2018-03-31T21:42:56.729Z,62.85
2018-03-31T21:45:24.252Z,62.02
2018-03-31T21:47:52.461Z,63.18
2018-03-31T21:50:20.607Z,63.15
2018-03-31T21:52:48.250Z,63.13
2018-03-31T21:55:16.515Z,62.65
2018-03-31T21:57:44.864Z,64.05
2018-03-31T22:00:13.079Z,64.33
2018-03-31T22:02:40.596Z,64.76
2018-03-31T22:05:08.803Z,63.40
2018-03-31T22:07:36.556Z,64.95
2018-03-31T22:10:04.413Z,64.68
2018-03-31T22:12:32.000Z,65.36
2018-03-31T22:15:05.754Z,63.79
2018-03-31T22:17:33.463Z,63.38
2018-03-31T22:20:01.785Z,63.28
2018-03-31T22:22:29.355Z,62.83
2018-03-31T22:24:57.359Z,62.87
2018-03-31T22:27:26.836Z,63.30
2018-03-31T22:29:54.412Z,62.64
2018-03-31T22:32:22.145Z,64.93
2018-03-31T22:34:49.772Z,64.25
2018-03-31T22:37:17.459Z,63.87
2018-03-31T22:39:44.965Z,64.31
2018-03-31T22:42:13.011Z,64.32
2018-03-31T22:44:40.524Z,63.89
2018-03-31T22:47:08.593Z,64.33
2018-03-31T22:49:37.670Z,63.83
2018-03-31T22:52:05.187Z,63.56
2018-03-31T22:54:32.699Z,63.71
2018-03-31T22:57:00.276Z,63.72
2018-03-31T22:59:28.556Z,63.67
2018-03-31T23:01:56.077Z,63.81
2018-03-31T23:04:23.659Z,64.02
2018-03-31T23:06:53.214Z,64.26
2018-03-31T23:09:20.793Z,64.30
2018-03-31T23:11:48.356Z,64.09
2018-03-31T23:14:19.740Z,64.20
2018-03-31T23:16:47.255Z,63.51
2018-03-31T23:19:16.208Z,63.91
2018-03-31T23:21:43.779Z,63.84
2018-03-31T23:24:11.300Z,64.15
2018-03-31T23:26:38.859Z,64.24
2018-03-31T23:29:07.068Z,63.96
2018-03-31T23:31:35.049Z,64.12
2018-03-31T23:34:02.712Z,64.46
2018-03-31T23:36:30.936Z,63.93
2018-03-31T23:38:58.767Z,63.93
2018-03-31T23:41:26.618Z,63.87
2018-03-31T23:43:54.176Z,63.60
2018-03-31T23:46:21.694Z,63.50
2018-03-31T23:48:55.477Z,63.46
2018-03-31T23:51:23.003Z,63.85
2018-03-31T23:53:50.552Z,63.71
2018-03-31T23:56:19.503Z,64.05
2018-03-31T23:58:47.016Z,64.47
